Calvin, Louisiana
Current Conditions -  °F | °C
As of 6:55 PM on Wednesday 17 Dec 2014 (Local Time) from KIER Reporting Station
Overcast Overcast  
Wind Chill: 50°   Ceiling: 11000
Heat Index: 50°   Visibility: 10mi
Dew Point: 43°   Wind: 6mph
Humidity: 76%   Direction: 100°E
Pressure: 30.17"   Gusts: NA
Location:  31.97°N, 92.78°W
Report Text: KIER 180055Z AUTO 10005KT 10SM OVC110 10/06 A3017 RMK AO2 T01020061
Loading
Personal Weather Stations






























Interactive Weather Map New forecast layout! Learn more

10-Day Weather Forecast

Advertisements
Track Severe Weather on mobile